createdAt,value
2023-04-29T00:00:06.746Z,85.60
2023-04-29T00:00:45.019Z,85.90
2023-04-29T00:01:17.058Z,85.90
2023-04-29T00:01:49.714Z,86.00
2023-04-29T00:02:21.844Z,86.00
2023-04-29T00:02:55.097Z,85.80
2023-04-29T00:04:02.055Z,85.40
2023-04-29T00:04:34.947Z,85.40
2023-04-29T00:05:07.662Z,85.60
2023-04-29T00:05:40.402Z,85.60
2023-04-29T00:06:12.726Z,85.60
2023-04-29T00:07:17.797Z,85.50
2023-04-29T00:08:23.056Z,85.40
2023-04-29T00:08:55.001Z,85.60
2023-04-29T00:09:27.273Z,85.60
2023-04-29T00:09:59.731Z,85.50
2023-04-29T00:10:31.826Z,85.50
2023-04-29T00:11:03.742Z,85.80
2023-04-29T00:11:36.022Z,85.80
2023-04-29T00:12:08.061Z,85.70
2023-04-29T00:12:41.299Z,85.80
2023-04-29T00:13:13.471Z,85.60
2023-04-29T00:13:45.747Z,85.80
2023-04-29T00:14:18.052Z,85.70
2023-04-29T00:14:50.551Z,85.70
2023-04-29T00:15:23.445Z,85.60
2023-04-29T00:16:28.011Z,85.60
2023-04-29T00:17:00.107Z,85.40
2023-04-29T00:17:32.317Z,87.10
2023-04-29T00:18:04.307Z,85.90
2023-04-29T00:18:37.706Z,86.00
2023-04-29T00:19:09.756Z,86.00
2023-04-29T00:20:15.146Z,86.00
2023-04-29T00:20:47.192Z,86.60
2023-04-29T00:21:19.462Z,86.60
2023-04-29T00:21:52.003Z,86.80
2023-04-29T00:22:24.151Z,86.50
2023-04-29T00:22:56.310Z,86.60
2023-04-29T00:23:28.348Z,86.60
2023-04-29T00:24:00.868Z,86.70
2023-04-29T00:24:32.906Z,86.50
2023-04-29T00:25:06.028Z,86.50
2023-04-29T00:25:38.909Z,86.50
2023-04-29T00:26:11.822Z,86.00
2023-04-29T00:26:45.153Z,86.70
2023-04-29T00:27:17.796Z,86.70
2023-04-29T00:27:50.426Z,86.60
2023-04-29T00:28:22.477Z,86.60
2023-04-29T00:28:54.868Z,86.10
2023-04-29T00:29:27.876Z,86.70
2023-04-29T00:29:59.908Z,86.70
2023-04-29T00:30:35.071Z,86.20
2023-04-29T00:31:07.142Z,86.20
2023-04-29T00:31:39.238Z,86.60
2023-04-29T00:32:11.428Z,86.00
2023-04-29T00:32:44.846Z,86.70
2023-04-29T00:33:16.841Z,86.50
2023-04-29T00:33:49.008Z,86.00
2023-04-29T00:34:21.154Z,86.10
2023-04-29T00:34:53.453Z,86.60
2023-04-29T00:35:25.723Z,86.50
2023-04-29T00:35:58.239Z,86.50
2023-04-29T00:36:31.953Z,86.50
2023-04-29T00:37:04.119Z,86.40
2023-04-29T00:37:36.765Z,86.50
2023-04-29T00:38:09.052Z,86.60
2023-04-29T00:38:41.190Z,86.50
2023-04-29T00:39:15.247Z,86.50
2023-04-29T00:39:47.674Z,86.30
2023-04-29T00:40:20.436Z,86.50
2023-04-29T00:40:53.072Z,86.10
2023-04-29T00:41:25.926Z,86.60
2023-04-29T00:41:58.713Z,86.50
2023-04-29T00:42:34.842Z,86.50
2023-04-29T00:43:07.248Z,86.50
2023-04-29T00:43:39.288Z,86.50
2023-04-29T00:44:11.677Z,86.60
2023-04-29T00:44:43.839Z,86.60
2023-04-29T00:45:16.356Z,86.00
2023-04-29T00:45:48.930Z,86.50
2023-04-29T00:46:21.196Z,86.60
2023-04-29T00:46:53.437Z,86.60
2023-04-29T00:47:26.095Z,84.80
2023-04-29T00:47:58.267Z,86.40
2023-04-29T00:48:30.400Z,86.30
2023-04-29T00:49:02.803Z,86.70
2023-04-29T00:49:35.084Z,86.40
2023-04-29T00:50:08.939Z,86.50
2023-04-29T00:50:42.285Z,86.30
2023-04-29T00:51:14.800Z,86.50
2023-04-29T00:51:48.766Z,86.50
2023-04-29T00:52:21.959Z,86.30
2023-04-29T00:52:55.129Z,86.30
2023-04-29T00:53:27.641Z,86.30
2023-04-29T00:54:00.043Z,86.40
2023-04-29T00:54:32.202Z,86.30
2023-04-29T00:55:07.374Z,86.30
2023-04-29T00:55:40.484Z,86.50
2023-04-29T00:56:15.040Z,86.30
2023-04-29T00:56:47.585Z,86.30
2023-04-29T00:57:20.460Z,85.90
2023-04-29T00:57:53.572Z,86.50
2023-04-29T00:58:32.929Z,86.50
2023-04-29T00:59:06.045Z,86.30
2023-04-29T00:59:38.932Z,85.70
2023-04-29T01:00:11.695Z,86.30
2023-04-29T01:00:44.327Z,86.30
2023-04-29T01:01:20.425Z,85.70
2023-04-29T01:01:54.118Z,85.70
2023-04-29T01:02:26.856Z,85.40
2023-04-29T01:02:59.942Z,85.40
2023-04-29T01:03:32.824Z,85.30
2023-04-29T01:04:40.635Z,85.40
2023-04-29T01:05:12.893Z,85.30
2023-04-29T01:05:58.133Z,85.20
2023-04-29T01:06:57.482Z,85.10
2023-04-29T01:09:50.172Z,85.40
2023-04-29T01:10:36.301Z,85.70
2023-04-29T01:12:08.217Z,84.70
2023-04-29T01:13:07.033Z,84.70
2023-04-29T01:22:23.342Z,84.00
2023-04-29T04:58:06.077Z,84.30
2023-04-29T04:59:45.303Z,84.20
2023-04-29T05:00:17.464Z,84.50
2023-04-29T05:00:51.678Z,84.60
2023-04-29T05:01:56.245Z,84.80
2023-04-29T05:02:28.773Z,84.90
2023-04-29T05:03:00.947Z,85.10
2023-04-29T05:03:34.049Z,85.30
2023-04-29T05:04:06.851Z,85.30
2023-04-29T05:04:39.185Z,85.40
2023-04-29T05:05:11.223Z,85.20
2023-04-29T05:05:46.379Z,85.30
2023-04-29T05:06:18.685Z,85.10
2023-04-29T05:07:26.579Z,85.30
2023-04-29T05:08:09.066Z,85.90
2023-04-29T05:08:48.174Z,85.50
2023-04-29T05:09:21.069Z,85.40
2023-04-29T05:09:53.476Z,85.40
2023-04-29T05:10:27.066Z,85.60
2023-04-29T05:11:02.335Z,86.10
2023-04-29T05:11:34.706Z,85.70
2023-04-29T05:13:08.465Z,85.70
2023-04-29T05:13:41.699Z,85.70
2023-04-29T05:14:14.117Z,85.60
2023-04-29T05:14:47.110Z,85.50
2023-04-29T05:15:19.507Z,85.40
2023-04-29T05:15:54.675Z,85.40
2023-04-29T05:16:31.305Z,85.40
2023-04-29T05:17:04.063Z,85.40
2023-04-29T05:17:36.743Z,85.50
2023-04-29T05:18:09.207Z,85.60
2023-04-29T05:18:44.237Z,85.60
2023-04-29T05:19:16.503Z,85.50
2023-04-29T05:19:48.664Z,85.50
2023-04-29T05:20:53.942Z,85.40
2023-04-29T05:21:26.103Z,85.30
2023-04-29T05:21:58.266Z,85.40
2023-04-29T05:22:30.784Z,85.60
2023-04-29T05:23:03.548Z,86.20
2023-04-29T05:23:41.009Z,85.70
2023-04-29T05:24:13.032Z,85.60
2023-04-29T05:24:45.068Z,85.60
2023-04-29T05:25:17.372Z,86.30
2023-04-29T05:25:50.001Z,85.70
2023-04-29T05:26:22.870Z,85.80
2023-04-29T05:26:56.482Z,85.80
2023-04-29T05:27:28.868Z,86.30
2023-04-29T05:28:02.355Z,86.00
2023-04-29T05:28:36.670Z,86.50
2023-04-29T05:29:09.206Z,85.90
2023-04-29T05:29:50.678Z,85.90
2023-04-29T05:30:23.468Z,86.50
2023-04-29T05:30:55.667Z,85.90
2023-04-29T05:31:28.761Z,86.50
2023-04-29T05:32:06.194Z,86.00
2023-04-29T05:32:38.387Z,85.80
2023-04-29T05:33:12.434Z,86.00
2023-04-29T05:33:44.834Z,86.10
2023-04-29T05:34:17.136Z,86.00
2023-04-29T05:34:49.639Z,86.10
2023-04-29T05:35:22.274Z,87.20
2023-04-29T05:35:54.676Z,86.00
2023-04-29T05:36:28.034Z,86.60
2023-04-29T05:37:00.077Z,86.00
2023-04-29T05:37:32.710Z,86.00
2023-04-29T05:38:14.836Z,86.60
2023-04-29T05:38:53.592Z,86.70
2023-04-29T05:39:26.838Z,86.80
2023-04-29T05:40:10.393Z,86.10
2023-04-29T05:40:42.557Z,86.10
2023-04-29T05:41:34.885Z,86.30
2023-04-29T05:42:24.310Z,86.00
2023-04-29T05:42:56.596Z,87.30
2023-04-29T05:43:28.646Z,86.70
2023-04-29T05:44:02.244Z,86.30
2023-04-29T05:44:36.800Z,86.70
2023-04-29T05:45:09.433Z,87.50
2023-04-29T05:45:42.436Z,86.90
2023-04-29T05:46:14.641Z,86.80
2023-04-29T05:46:48.779Z,86.70
2023-04-29T05:47:21.729Z,86.20
2023-04-29T05:47:53.971Z,86.30
2023-04-29T05:48:59.002Z,85.80
2023-04-29T05:50:04.039Z,86.00
2023-04-29T05:50:36.446Z,85.90
2023-04-29T05:51:08.714Z,85.80
2023-04-29T05:51:41.008Z,85.90
2023-04-29T05:52:51.917Z,85.90
2023-04-29T05:53:24.205Z,85.80
2023-04-29T05:53:56.608Z,86.00
2023-04-29T05:55:34.051Z,86.20
2023-04-29T05:56:08.242Z,86.70
2023-04-29T05:56:41.370Z,86.80
2023-04-29T05:57:14.480Z,86.20
2023-04-29T05:57:46.526Z,87.10
2023-04-29T05:58:18.808Z,86.40
2023-04-29T05:58:50.985Z,86.30
2023-04-29T05:59:23.366Z,86.40
2023-04-29T05:59:59.989Z,86.50
2023-04-29T06:00:32.130Z,86.90
2023-04-29T06:01:12.808Z,87.10
2023-04-29T06:01:44.966Z,86.60
2023-04-29T06:02:17.806Z,87.10
2023-04-29T06:02:58.158Z,87.10
2023-04-29T06:03:32.910Z,86.50
2023-04-29T06:04:28.626Z,87.20
2023-04-29T06:05:24.769Z,86.50
2023-04-29T06:07:09.216Z,86.40
2023-04-29T06:08:05.848Z,86.40
2023-04-29T06:08:54.581Z,86.50
2023-04-29T06:09:31.054Z,86.50
2023-04-29T06:10:06.931Z,86.30
2023-04-29T06:10:39.088Z,86.50
2023-04-29T06:11:11.261Z,86.40
2023-04-29T06:11:44.381Z,86.20
2023-04-29T06:12:51.902Z,86.20
2023-04-29T06:13:24.940Z,86.10
2023-04-29T06:13:57.473Z,86.30
2023-04-29T06:14:29.751Z,86.20
2023-04-29T06:15:02.012Z,86.30
2023-04-29T06:15:34.535Z,86.30
2023-04-29T06:16:08.024Z,86.40
2023-04-29T06:16:41.187Z,86.40
2023-04-29T06:17:15.108Z,86.30
2023-04-29T06:17:47.508Z,86.40
2023-04-29T06:19:58.550Z,86.10
2023-04-29T06:22:11.871Z,86.40
2023-04-29T06:22:48.454Z,86.50
2023-04-29T06:23:21.337Z,86.20
2023-04-29T06:23:54.596Z,86.20
2023-04-29T06:24:27.100Z,86.00
2023-04-29T06:24:59.256Z,86.00
2023-04-29T06:25:41.152Z,86.00
2023-04-29T06:26:14.980Z,85.90
2023-04-29T06:27:20.020Z,85.60
2023-04-29T06:27:52.073Z,85.50
2023-04-29T06:28:28.898Z,85.90
2023-04-29T06:29:01.543Z,86.20
2023-04-29T06:29:33.835Z,86.40
2023-04-29T06:30:38.860Z,85.80
2023-04-29T06:31:44.427Z,85.90
2023-04-29T06:32:16.784Z,85.90
2023-04-29T06:32:50.247Z,86.20
2023-04-29T06:33:22.542Z,86.50
2023-04-29T06:33:55.315Z,86.20
2023-04-29T06:35:32.397Z,85.90
2023-04-29T06:36:23.499Z,86.90
2023-04-29T06:37:18.704Z,86.90
2023-04-29T06:38:23.147Z,87.00
2023-04-29T06:39:05.869Z,87.20
2023-04-29T06:40:04.904Z,87.40
2023-04-29T06:41:06.111Z,87.70
2023-04-29T06:42:07.546Z,87.40
2023-04-29T06:42:56.624Z,87.20
2023-04-29T06:43:48.940Z,87.20
2023-04-29T06:44:40.196Z,87.10
2023-04-29T06:46:13.095Z,87.10
2023-04-29T06:47:47.439Z,87.50
2023-04-29T06:48:29.752Z,88.10
2023-04-29T06:49:02.272Z,87.80
2023-04-29T06:49:37.073Z,87.90
2023-04-29T06:50:10.806Z,87.20
2023-04-29T06:50:53.515Z,87.30
2023-04-29T06:51:25.796Z,88.00
2023-04-29T06:51:57.832Z,87.70
2023-04-29T06:52:32.158Z,87.70
2023-04-29T06:53:04.434Z,87.60
2023-04-29T06:53:36.472Z,87.70
2023-04-29T06:54:08.891Z,88.00
2023-04-29T06:54:40.914Z,87.70
2023-04-29T06:55:12.846Z,87.80
2023-04-29T06:56:20.278Z,87.60
2023-04-29T06:56:53.279Z,87.80
2023-04-29T06:57:25.444Z,88.00
2023-04-29T06:57:57.714Z,87.80
2023-04-29T06:58:29.768Z,87.80
2023-04-29T06:59:02.048Z,87.90
2023-04-29T06:59:34.112Z,87.90
2023-04-29T07:00:09.592Z,88.00
2023-04-29T07:01:17.408Z,87.90
2023-04-29T07:02:25.178Z,87.50
2023-04-29T07:02:57.295Z,87.40
2023-04-29T07:03:31.558Z,87.50
2023-04-29T07:04:04.491Z,87.50
2023-04-29T07:04:37.761Z,87.40
2023-04-29T07:05:10.088Z,87.60
2023-04-29T07:05:43.081Z,87.30
2023-04-29T07:06:15.121Z,87.30
2023-04-29T07:06:47.444Z,87.30
2023-04-29T07:07:51.974Z,87.70
2023-04-29T07:09:31.087Z,87.60
2023-04-29T07:10:03.737Z,87.30
2023-04-29T07:10:35.883Z,87.50
2023-04-29T07:11:08.041Z,87.60
2023-04-29T07:11:40.570Z,87.60
2023-04-29T07:12:12.632Z,87.30
2023-04-29T07:13:17.285Z,87.40
2023-04-29T07:13:49.933Z,87.50
2023-04-29T07:14:23.182Z,87.60
2023-04-29T07:14:55.448Z,87.50
2023-04-29T07:15:28.689Z,87.50
2023-04-29T07:16:00.977Z,87.50
2023-04-29T07:16:33.533Z,87.40
2023-04-29T07:17:06.018Z,87.40
2023-04-29T07:17:42.180Z,87.50
2023-04-29T07:18:14.409Z,87.50
2023-04-29T07:18:47.052Z,87.20
2023-04-29T07:19:19.107Z,87.00
2023-04-29T07:19:51.691Z,87.00
2023-04-29T07:20:24.129Z,87.10
2023-04-29T07:21:00.608Z,87.00
2023-04-29T07:21:32.906Z,87.10
2023-04-29T07:22:05.054Z,87.10
2023-04-29T07:22:37.093Z,87.00
2023-04-29T07:24:46.698Z,87.00
2023-04-29T07:25:18.860Z,87.20
2023-04-29T07:25:52.455Z,87.10
2023-04-29T07:27:32.654Z,86.60
2023-04-29T07:28:04.842Z,86.70
2023-04-29T07:28:37.092Z,86.70
2023-04-29T07:29:09.136Z,86.60
2023-04-29T07:29:41.173Z,86.80
2023-04-29T07:30:13.359Z,86.80
2023-04-29T07:30:45.515Z,86.80
2023-04-29T07:31:18.203Z,86.80
2023-04-29T07:31:50.536Z,87.10
2023-04-29T07:32:22.720Z,87.10
2023-04-29T07:32:54.889Z,87.00
2023-04-29T07:33:26.902Z,87.00
2023-04-29T07:33:59.059Z,86.90
2023-04-29T07:35:04.812Z,87.30
2023-04-29T07:35:36.977Z,87.30
2023-04-29T07:36:11.302Z,87.20
2023-04-29T07:36:43.458Z,87.40
2023-04-29T07:37:15.757Z,87.60
2023-04-29T07:38:21.748Z,87.60
2023-04-29T07:38:53.899Z,87.80
2023-04-29T07:39:26.533Z,87.90
2023-04-29T07:40:01.464Z,87.90
2023-04-29T07:40:33.621Z,87.80
2023-04-29T07:41:05.789Z,87.80
2023-04-29T07:41:38.055Z,87.70
2023-04-29T07:42:10.627Z,87.60
2023-04-29T07:42:42.862Z,87.80
2023-04-29T07:43:15.144Z,87.70
2023-04-29T07:43:47.301Z,87.70
2023-04-29T07:44:19.474Z,87.50
2023-04-29T07:45:24.857Z,87.30
2023-04-29T07:45:56.896Z,87.70
2023-04-29T07:46:29.152Z,88.00
2023-04-29T07:47:33.906Z,88.00
2023-04-29T07:48:06.760Z,87.70
2023-04-29T07:48:39.616Z,87.70
2023-04-29T07:49:44.663Z,87.60
2023-04-29T07:50:49.700Z,87.20
2023-04-29T07:51:22.701Z,87.30
2023-04-29T07:51:54.980Z,87.60
2023-04-29T07:52:27.020Z,87.90
2023-04-29T07:53:00.526Z,88.00
2023-04-29T07:53:32.791Z,87.90
2023-04-29T07:54:04.830Z,88.00
2023-04-29T07:54:37.485Z,88.60
2023-04-29T07:55:10.068Z,88.40
2023-04-29T07:55:42.509Z,88.60
2023-04-29T07:56:14.664Z,88.20
2023-04-29T07:56:46.950Z,88.20
2023-04-29T07:57:19.002Z,87.90
2023-04-29T07:58:25.471Z,88.00
2023-04-29T07:58:57.515Z,88.00
2023-04-29T07:59:30.864Z,88.10
2023-04-29T08:00:03.141Z,88.00
2023-04-29T08:00:47.423Z,87.90
2023-04-29T08:01:19.840Z,87.40
2023-04-29T08:01:52.833Z,87.40
2023-04-29T08:02:25.320Z,87.60
2023-04-29T08:02:58.120Z,87.60
2023-04-29T08:03:30.717Z,87.40
2023-04-29T08:04:03.121Z,87.50
2023-04-29T08:04:45.394Z,87.40
2023-04-29T08:05:19.573Z,87.30
2023-04-29T08:05:53.762Z,87.20
2023-04-29T08:06:25.947Z,87.80
2023-04-29T08:06:58.239Z,87.70
2023-04-29T08:08:03.644Z,88.40
2023-04-29T08:08:35.909Z,88.00
2023-04-29T08:09:08.336Z,87.70
2023-04-29T08:09:40.464Z,87.60
2023-04-29T08:10:15.858Z,87.50
2023-04-29T08:10:48.026Z,87.60
2023-04-29T08:11:21.634Z,87.80
2023-04-29T08:11:53.685Z,87.70
2023-04-29T08:12:25.832Z,87.60
2023-04-29T08:12:58.260Z,87.70
2023-04-29T08:13:33.277Z,88.00
2023-04-29T08:14:06.761Z,87.80
2023-04-29T08:14:39.262Z,87.60
2023-04-29T08:15:11.552Z,87.30
2023-04-29T08:15:43.756Z,87.90
2023-04-29T08:16:15.937Z,88.50
2023-04-29T08:16:48.521Z,88.60
2023-04-29T08:17:53.264Z,88.30
2023-04-29T08:18:25.520Z,88.10
2023-04-29T08:19:30.162Z,87.90
2023-04-29T08:20:02.557Z,88.10
2023-04-29T08:20:34.835Z,88.20
2023-04-29T08:21:06.880Z,88.30
2023-04-29T08:21:39.040Z,88.20
2023-04-29T08:22:12.398Z,89.90
2023-04-29T08:22:44.557Z,88.40
2023-04-29T08:23:16.712Z,88.40
2023-04-29T08:23:48.761Z,88.50
2023-04-29T08:24:21.291Z,89.90
2023-04-29T08:24:53.651Z,88.80
2023-04-29T08:25:27.285Z,88.50
2023-04-29T08:25:59.558Z,88.30
2023-04-29T08:26:31.995Z,88.50
2023-04-29T08:27:04.844Z,88.40
2023-04-29T08:27:37.003Z,88.60
2023-04-29T08:28:09.418Z,88.50
2023-04-29T08:28:41.939Z,88.40
2023-04-29T08:29:14.198Z,89.10
2023-04-29T08:29:46.484Z,88.40
2023-04-29T08:30:19.002Z,88.90
2023-04-29T08:31:23.947Z,88.50
2023-04-29T08:31:56.226Z,88.50
2023-04-29T08:32:28.383Z,88.50
2023-04-29T08:33:00.585Z,89.20
2023-04-29T08:33:33.643Z,88.90
2023-04-29T08:34:05.573Z,88.60
2023-04-29T08:34:37.844Z,88.90
2023-04-29T08:35:10.265Z,88.10
2023-04-29T08:35:42.766Z,88.50
2023-04-29T08:36:15.057Z,88.80
2023-04-29T08:36:47.565Z,88.50
2023-04-29T08:37:54.411Z,88.40
2023-04-29T08:38:26.790Z,88.80
2023-04-29T08:38:59.090Z,88.30
2023-04-29T08:39:31.485Z,89.20
2023-04-29T08:40:03.896Z,88.70
2023-04-29T08:40:43.518Z,89.10
2023-04-29T08:41:16.935Z,88.90
2023-04-29T08:41:52.127Z,89.30
2023-04-29T08:42:34.252Z,89.10
2023-04-29T08:43:06.282Z,90.60
2023-04-29T08:43:40.824Z,88.40
2023-04-29T08:44:13.486Z,89.10
2023-04-29T08:44:46.014Z,88.30
2023-04-29T08:45:23.100Z,88.90
2023-04-29T08:45:58.051Z,88.80
2023-04-29T08:47:03.768Z,88.00
2023-04-29T08:47:37.218Z,88.00
2023-04-29T08:48:10.445Z,88.40
2023-04-29T08:48:45.212Z,87.90
2023-04-29T08:49:18.410Z,88.30
2023-04-29T08:49:50.452Z,87.60
2023-04-29T08:50:23.940Z,88.00
2023-04-29T08:50:56.709Z,87.90
2023-04-29T08:51:28.865Z,88.20
2023-04-29T08:52:01.258Z,87.70
2023-04-29T08:52:33.782Z,87.70
2023-04-29T08:53:08.109Z,87.60
2023-04-29T08:53:40.379Z,87.60
2023-04-29T08:54:12.678Z,87.60
2023-04-29T08:54:44.819Z,88.20
2023-04-29T08:55:16.980Z,87.70
2023-04-29T08:55:49.031Z,87.80
2023-04-29T08:56:56.698Z,87.40
2023-04-29T08:57:31.255Z,87.80
2023-04-29T08:58:04.384Z,87.50
2023-04-29T08:58:41.094Z,87.50
2023-04-29T08:59:16.499Z,87.60
2023-04-29T08:59:48.778Z,88.80
2023-04-29T09:00:24.676Z,89.20
2023-04-29T09:00:57.305Z,87.80
2023-04-29T09:01:31.070Z,88.10
2023-04-29T09:02:10.029Z,88.10
2023-04-29T09:02:48.239Z,87.60
2023-04-29T09:03:43.429Z,88.10
2023-04-29T09:04:58.576Z,87.50
2023-04-29T09:05:31.859Z,88.10
2023-04-29T09:06:05.605Z,87.60
2023-04-29T09:06:38.124Z,87.90
2023-04-29T09:07:12.781Z,88.10
2023-04-29T09:07:46.938Z,88.00
2023-04-29T09:08:22.503Z,87.90
2023-04-29T09:08:54.780Z,89.40
2023-04-29T09:09:27.664Z,88.30
2023-04-29T09:10:01.027Z,87.90
2023-04-29T09:10:33.902Z,88.10
2023-04-29T09:11:10.509Z,88.40
2023-04-29T09:11:42.782Z,87.90
2023-04-29T09:12:15.065Z,88.20
2023-04-29T09:12:47.103Z,89.00
2023-04-29T09:13:30.674Z,88.00
2023-04-29T09:14:04.626Z,88.20
2023-04-29T09:14:37.150Z,87.70
2023-04-29T09:15:09.659Z,87.70
2023-04-29T09:15:42.676Z,88.20
2023-04-29T09:16:14.855Z,87.90
2023-04-29T09:16:47.425Z,87.50
2023-04-29T09:17:20.478Z,88.10
2023-04-29T09:17:53.741Z,88.10
2023-04-29T09:18:48.453Z,87.60
2023-04-29T09:19:34.742Z,88.20
2023-04-29T09:20:22.216Z,87.00
2023-04-29T09:20:54.910Z,88.70
2023-04-29T09:21:29.348Z,88.70
2023-04-29T09:22:03.797Z,88.30
2023-04-29T09:22:51.909Z,88.10
2023-04-29T09:23:37.634Z,87.90
2023-04-29T09:24:09.797Z,88.00
2023-04-29T09:24:43.639Z,87.20
2023-04-29T09:25:16.047Z,87.90
2023-04-29T09:25:57.684Z,87.20
2023-04-29T09:26:56.229Z,88.10
2023-04-29T09:27:29.591Z,87.60
2023-04-29T09:28:15.916Z,87.70
2023-04-29T09:28:49.760Z,87.80
2023-04-29T09:29:22.761Z,87.40
2023-04-29T09:30:01.399Z,87.80
2023-04-29T09:30:45.325Z,87.90
2023-04-29T09:31:27.863Z,87.70
2023-04-29T09:32:00.206Z,87.70
2023-04-29T09:32:32.413Z,87.70
2023-04-29T09:33:07.596Z,87.60
2023-04-29T09:33:52.653Z,87.60
2023-04-29T09:34:36.089Z,87.60
2023-04-29T09:35:28.423Z,87.40
2023-04-29T09:36:01.160Z,87.40
2023-04-29T09:36:38.364Z,87.90
2023-04-29T09:37:26.243Z,87.60
2023-04-29T09:38:11.252Z,87.40
2023-04-29T09:38:55.875Z,86.70
2023-04-29T09:39:37.760Z,87.60
2023-04-29T09:40:30.694Z,87.00
2023-04-29T09:41:12.202Z,86.30
2023-04-29T09:41:52.885Z,87.70
2023-04-29T09:42:25.279Z,87.50
2023-04-29T09:42:58.047Z,87.30
2023-04-29T09:43:30.097Z,87.00
2023-04-29T09:44:06.336Z,86.60
2023-04-29T09:44:42.679Z,86.90
2023-04-29T09:45:43.077Z,86.90
2023-04-29T09:46:16.689Z,86.70
2023-04-29T09:47:08.852Z,86.90
2023-04-29T09:47:41.150Z,86.70
2023-04-29T09:48:15.710Z,86.90
2023-04-29T09:48:47.962Z,86.60
2023-04-29T09:49:27.953Z,86.60
2023-04-29T09:50:14.024Z,86.20
2023-04-29T09:51:04.259Z,86.50
2023-04-29T09:51:58.893Z,86.40
2023-04-29T09:52:44.127Z,86.50
2023-04-29T09:53:30.325Z,86.60
2023-04-29T09:54:21.324Z,86.40
2023-04-29T09:55:06.579Z,86.40
2023-04-29T09:56:02.623Z,86.30
2023-04-29T09:56:53.368Z,87.00
2023-04-29T09:57:44.271Z,86.10
2023-04-29T09:58:37.525Z,86.20
2023-04-29T09:59:10.170Z,86.20
2023-04-29T09:59:43.681Z,86.30
2023-04-29T10:00:16.172Z,86.20
2023-04-29T10:00:48.691Z,85.80
2023-04-29T10:01:23.487Z,86.40
2023-04-29T10:01:57.321Z,86.30
2023-04-29T10:02:29.568Z,86.20
2023-04-29T10:03:02.387Z,85.60
2023-04-29T10:03:39.504Z,86.20
2023-04-29T10:04:13.434Z,86.00
2023-04-29T10:04:47.721Z,86.20
2023-04-29T10:05:21.338Z,86.20
2023-04-29T10:05:53.868Z,86.10
2023-04-29T10:06:26.249Z,85.80
2023-04-29T10:07:00.458Z,86.20
2023-04-29T10:07:33.096Z,86.10
2023-04-29T10:08:05.737Z,86.00
2023-04-29T10:08:38.977Z,86.20
2023-04-29T10:09:16.356Z,86.60
2023-04-29T10:09:49.043Z,86.00
2023-04-29T10:10:23.152Z,85.60
2023-04-29T10:11:00.809Z,85.50
2023-04-29T10:11:33.576Z,86.00
2023-04-29T10:12:07.893Z,85.50
2023-04-29T10:12:41.135Z,85.30
2023-04-29T10:13:13.057Z,85.30
2023-04-29T10:14:25.791Z,85.10
2023-04-29T10:15:06.221Z,85.00
2023-04-29T10:16:31.662Z,85.10
2023-04-29T10:17:11.505Z,85.00
2023-04-29T10:18:09.722Z,85.10
2023-04-29T10:18:49.251Z,84.90
2023-04-29T10:19:41.740Z,84.90
2023-04-29T10:20:16.544Z,84.70
2023-04-29T10:21:28.697Z,84.50
2023-04-29T10:23:22.545Z,84.70
2023-04-29T10:23:57.826Z,84.60
2023-04-29T10:25:37.666Z,84.60
2023-04-29T10:26:47.022Z,85.00
2023-04-29T10:27:21.680Z,84.70
2023-04-29T12:49:38.458Z,83.60
2023-04-29T12:50:11.348Z,82.70
2023-04-29T12:50:43.974Z,84.30
2023-04-29T12:51:18.180Z,83.60
2023-04-29T12:51:50.576Z,84.10
2023-04-29T12:52:22.867Z,82.30
2023-04-29T12:52:55.137Z,83.60
2023-04-29T12:53:30.062Z,82.60
2023-04-29T12:54:04.029Z,83.00
2023-04-29T12:54:37.898Z,82.90
2023-04-29T12:56:15.180Z,83.20
2023-04-29T12:56:48.483Z,83.50
2023-04-29T12:57:22.379Z,83.40
2023-04-29T12:57:54.545Z,83.50
2023-04-29T12:58:30.532Z,84.40
2023-04-29T12:59:10.628Z,84.40
2023-04-29T12:59:42.782Z,82.80
2023-04-29T13:00:15.663Z,84.00
2023-04-29T13:00:47.955Z,84.00
2023-04-29T13:01:20.251Z,84.50
2023-04-29T13:02:25.077Z,83.40
2023-04-29T13:02:57.415Z,83.60
2023-04-29T13:03:29.882Z,83.90
2023-04-29T13:04:02.410Z,83.90
2023-04-29T13:04:34.739Z,84.80
2023-04-29T13:05:07.318Z,85.10
2023-04-29T13:05:39.550Z,83.80
2023-04-29T13:06:11.702Z,84.40
2023-04-29T13:06:43.748Z,84.00
2023-04-29T13:07:16.038Z,83.60
2023-04-29T13:07:48.788Z,83.80
2023-04-29T13:08:21.547Z,83.20
2023-04-29T13:08:53.598Z,81.60
2023-04-29T13:09:26.462Z,83.90
2023-04-29T13:09:58.409Z,82.60
2023-04-29T13:10:30.675Z,82.60
2023-04-29T13:11:02.789Z,82.70
2023-04-29T13:11:35.464Z,83.40
2023-04-29T13:12:09.495Z,82.70
2023-04-29T13:12:41.947Z,82.40
2023-04-29T13:13:14.235Z,83.80
2023-04-29T13:13:46.400Z,81.80
2023-04-29T13:14:18.914Z,82.60
2023-04-29T13:14:51.363Z,83.30
2023-04-29T13:15:23.718Z,81.60
2023-04-29T13:15:56.248Z,82.00
2023-04-29T13:16:29.325Z,82.20
2023-04-29T13:17:04.353Z,81.70
2023-04-29T13:17:37.290Z,81.90
2023-04-29T13:18:09.428Z,81.90
2023-04-29T13:18:47.858Z,82.70
2023-04-29T13:19:48.224Z,81.60
2023-04-29T13:20:23.114Z,80.80
2023-04-29T13:20:55.388Z,81.10
2023-04-29T13:21:28.269Z,80.70
2023-04-29T13:22:00.431Z,81.30
2023-04-29T13:22:33.199Z,80.90
2023-04-29T13:23:05.350Z,80.50
2023-04-29T13:23:37.514Z,80.60
2023-04-29T13:24:42.795Z,81.40
2023-04-29T13:25:51.326Z,79.60
2023-04-29T13:26:25.158Z,80.80
2023-04-29T13:26:58.290Z,80.80
2023-04-29T13:27:30.677Z,81.00
2023-04-29T13:28:03.074Z,81.50
2023-04-29T13:28:35.594Z,81.10
2023-04-29T13:29:08.001Z,81.80
2023-04-29T13:29:40.203Z,81.80
2023-04-29T13:30:12.457Z,81.70
2023-04-29T13:30:44.726Z,82.60
2023-04-29T13:31:17.016Z,81.90
2023-04-29T13:31:49.917Z,82.10
2023-04-29T13:32:24.763Z,81.80
2023-04-29T13:33:03.992Z,82.30
2023-04-29T13:33:41.882Z,82.20
2023-04-29T13:34:14.078Z,81.30
2023-04-29T13:34:46.400Z,83.60
2023-04-29T13:35:51.322Z,81.30
2023-04-29T13:36:23.597Z,81.70
2023-04-29T13:36:55.884Z,81.50
2023-04-29T13:37:28.041Z,82.50
2023-04-29T13:38:01.283Z,82.30
2023-04-29T13:38:33.325Z,82.20
2023-04-29T13:39:05.479Z,82.40
2023-04-29T13:39:38.311Z,81.70
2023-04-29T13:40:20.186Z,81.50
2023-04-29T13:40:54.730Z,81.70
2023-04-29T13:41:28.182Z,81.00
2023-04-29T13:42:00.527Z,80.60
2023-04-29T13:42:39.181Z,81.30
2023-04-29T13:43:30.006Z,82.30
2023-04-29T13:44:20.626Z,81.70
2023-04-29T13:45:29.613Z,81.00
2023-04-29T13:46:02.409Z,82.50
2023-04-29T13:46:34.978Z,81.70
2023-04-29T13:47:07.569Z,81.70
2023-04-29T13:48:00.330Z,81.90
2023-04-29T13:49:08.192Z,82.30
2023-04-29T13:49:54.723Z,84.10
2023-04-29T13:51:00.833Z,82.00
2023-04-29T13:52:09.853Z,80.80
2023-04-29T13:54:58.304Z,81.60
2023-04-29T13:57:18.533Z,82.10
2023-04-29T13:59:08.643Z,81.30
2023-04-29T14:00:31.836Z,82.70
2023-04-29T14:01:25.506Z,83.30
2023-04-29T14:02:23.331Z,83.10
2023-04-29T14:03:32.447Z,82.20
2023-04-29T14:04:08.232Z,82.90
2023-04-29T14:05:13.341Z,82.90
2023-04-29T14:05:45.891Z,83.00
2023-04-29T14:06:18.231Z,82.40
2023-04-29T14:06:50.494Z,82.20
2023-04-29T14:07:23.029Z,82.60
2023-04-29T14:07:55.188Z,82.60
2023-04-29T14:08:27.455Z,82.20
2023-04-29T14:09:33.477Z,81.50
2023-04-29T14:10:06.346Z,82.20
2023-04-29T14:10:38.621Z,82.10
2023-04-29T14:11:10.899Z,82.00
2023-04-29T14:11:43.177Z,82.30
2023-04-29T14:12:48.848Z,81.80
2023-04-29T14:13:21.265Z,82.20
2023-04-29T14:13:53.569Z,82.20
2023-04-29T14:14:25.781Z,81.70
2023-04-29T14:15:00.049Z,82.80
2023-04-29T14:15:32.655Z,82.30
2023-04-29T14:16:06.674Z,82.30
2023-04-29T14:16:38.980Z,82.70
2023-04-29T14:17:11.280Z,82.60
2023-04-29T14:17:43.513Z,82.70
2023-04-29T14:18:15.591Z,83.00
2023-04-29T14:18:47.646Z,82.20
2023-04-29T14:19:19.905Z,82.10
2023-04-29T14:20:24.718Z,81.80
2023-04-29T14:20:57.956Z,83.20
2023-04-29T14:21:30.345Z,83.20
2023-04-29T14:22:02.518Z,83.30
2023-04-29T14:22:34.692Z,83.40
2023-04-29T14:23:07.085Z,83.70
2023-04-29T14:23:39.706Z,83.20
2023-04-29T14:24:11.863Z,83.10
2023-04-29T14:24:43.788Z,83.20
2023-04-29T14:25:16.076Z,83.20
2023-04-29T14:25:48.361Z,83.10
2023-04-29T14:26:27.719Z,83.30
2023-04-29T14:27:02.165Z,83.30
2023-04-29T14:27:35.748Z,83.30
2023-04-29T14:28:40.688Z,81.50
2023-04-29T14:29:15.466Z,81.90
2023-04-29T14:30:19.922Z,84.20
2023-04-29T14:30:52.209Z,84.30